Time;durP1;ratioP1;P1;durP2;ratioP2;P2;SDS_P1;SDS_P2;PMS_P1;PMS_P2;Temp;Humidity;BMP_temperature;BMP_pressure;BME280_temperature;BME280_humidity;BME280_pressure;Samples;Min_cycle;Max_cycle;Signal;HPM_P1;HPM_P2
2021/01/31 00:00:19;;;;;;;;;;;;;;;8.79;100.00;98275.16;5075836;28;19995;-74
2021/01/31 00:02:44;;;;;;;;;;;;;;;8.80;100.00;98270.41;5084394;28;19917;-73
2021/01/31 00:05:10;;;;;;;;;;;;;;;8.79;100.00;98277.13;5071130;28;19938;-73
2021/01/31 00:07:35;;;;;;;;;;;;;;;8.78;100.00;98287.38;5098813;28;20326;-73
2021/01/31 00:10:01;;;;;;;;;;;;;;;8.78;100.00;98286.56;5064281;28;20019;-73
2021/01/31 00:12:26;;;;;;;;;;;;;;;8.76;100.00;98294.41;5085375;28;19924;-73
2021/01/31 00:14:51;;;;;;;;;;;;;;;8.78;100.00;98294.88;5103585;28;20383;-73
2021/01/31 00:17:17;;;;;;;;;;;;;;;8.78;100.00;98312.28;5078568;28;19949;-73
2021/01/31 00:19:42;;;;;;;;;;;;;;;8.76;100.00;98333.94;5068856;28;19927;-73
2021/01/31 00:22:07;;;;;;;;;;;;;;;8.75;100.00;98345.34;5091256;28;19920;-73
2021/01/31 00:24:33;;;;;;;;;;;;;;;8.71;100.00;98359.84;5085847;28;19916;-73
2021/01/31 00:26:58;;;;;;;;;;;;;;;8.71;100.00;98367.34;5078798;28;19958;-73
2021/01/31 00:29:23;;;;;;;;;;;;;;;8.69;100.00;98381.53;5074887;28;20370;-73
2021/01/31 00:31:49;;;;;;;;;;;;;;;8.69;100.00;98387.06;5084332;28;20007;-73
2021/01/31 00:34:15;;;;;;;;;;;;;;;8.70;100.00;98393.41;5075144;28;19916;-73
2021/01/31 00:36:40;;;;;;;;;;;;;;;8.69;100.00;98389.84;5108531;28;20339;-73
2021/01/31 00:39:07;;;;;;;;;;;;;;;8.69;100.00;98391.75;5068139;28;19923;-73
2021/01/31 00:41:33;;;;;;;;;;;;;;;8.70;100.00;98380.38;5098217;28;19916;-73
2021/01/31 00:43:58;;;;;;;;;;;;;;;8.69;100.00;98389.84;5087192;28;19973;-74
2021/01/31 00:46:24;;;;;;;;;;;;;;;8.70;100.00;98396.16;5100055;28;20050;-73
2021/01/31 00:48:49;;;;;;;;;;;;;;;8.69;100.00;98403.66;5100041;28;20011;-73
2021/01/31 00:51:14;;;;;;;;;;;;;;;8.70;100.00;98407.25;5072518;28;19917;-73
2021/01/31 00:53:40;;;;;;;;;;;;;;;8.68;100.00;98409.53;5083918;28;19920;-73
2021/01/31 00:56:05;;;;;;;;;;;;;;;8.69;100.00;98406.44;5064447;28;19916;-73
2021/01/31 00:58:30;;;;;;;;;;;;;;;8.70;100.00;98412.78;5096742;28;19954;-73
2021/01/31 01:00:56;;;;;;;;;;;;;;;8.69;100.00;98411.97;5083803;28;19912;-73
2021/01/31 01:03:21;;;;;;;;;;;;;;;8.68;100.00;98409.53;5079895;28;20279;-73
2021/01/31 01:05:46;;;;;;;;;;;;;;;8.66;100.00;98423.72;5086026;28;20007;-73
2021/01/31 01:08:12;;;;;;;;;;;;;;;8.66;100.00;98432.00;5100451;28;20388;-73
2021/01/31 01:10:37;;;;;;;;;;;;;;;8.65;100.00;98433.13;5065699;28;19930;-73
2021/01/31 01:13:03;;;;;;;;;;;;;;;8.63;100.00;98435.41;5097176;28;19972;-73
2021/01/31 01:15:29;;;;;;;;;;;;;;;8.63;100.00;98440.13;5086148;28;19937;-73
2021/01/31 01:17:55;;;;;;;;;;;;;;;8.63;100.00;98445.69;5099272;28;19924;-73
2021/01/31 01:20:20;;;;;;;;;;;;;;;8.63;100.00;98452.00;5099310;28;19928;-73
2021/01/31 01:22:46;;;;;;;;;;;;;;;8.63;100.00;98452.00;5084072;28;20262;-73
2021/01/31 01:25:12;;;;;;;;;;;;;;;8.63;100.00;98463.09;5097662;28;19922;-73
2021/01/31 01:27:40;;;;;;;;;;;;;;;8.65;100.00;98471.88;5088435;28;19924;-74
2021/01/31 01:30:06;;;;;;;;;;;;;;;8.64;100.00;98480.53;5091873;28;19928;-74
2021/01/31 01:32:32;;;;;;;;;;;;;;;8.63;100.00;98501.81;5074996;28;19923;-73
2021/01/31 01:34:57;;;;;;;;;;;;;;;8.64;100.00;98519.25;5083097;28;20519;-73
2021/01/31 01:37:22;;;;;;;;;;;;;;;8.66;100.00;98517.78;5079628;28;19930;-73
2021/01/31 01:39:48;;;;;;;;;;;;;;;8.64;100.00;98514.53;5060471;28;20368;-73
2021/01/31 01:42:13;;;;;;;;;;;;;;;8.64;100.00;98516.50;5097326;28;19938;-73
2021/01/31 01:44:39;;;;;;;;;;;;;;;8.63;100.00;98518.44;5071484;28;19912;-73
2021/01/31 01:47:06;;;;;;;;;;;;;;;8.64;100.00;98524.81;5069920;28;19916;-73
2021/01/31 01:49:32;;;;;;;;;;;;;;;8.66;100.00;98539.09;5102335;28;19927;-73
2021/01/31 01:51:59;;;;;;;;;;;;;;;8.63;100.00;98540.56;5088315;28;19920;-73
2021/01/31 01:54:27;;;;;;;;;;;;;;;8.64;100.00;98541.41;5070340;28;20545;-73
2021/01/31 01:56:53;;;;;;;;;;;;;;;8.62;100.00;98555.56;5078431;28;19917;-73
2021/01/31 01:59:18;;;;;;;;;;;;;;;8.61;100.00;98565.00;5077030;28;19916;-73
2021/01/31 02:01:46;;;;;;;;;;;;;;;8.59;100.00;98567.28;5070098;28;19916;-73
2021/01/31 02:04:11;;;;;;;;;;;;;;;8.59;100.00;98570.03;5078055;28;19998;-73
2021/01/31 02:06:37;;;;;;;;;;;;;;;8.58;100.00;98565.66;5071956;28;19954;-73
2021/01/31 02:09:03;;;;;;;;;;;;;;;8.56;100.00;98567.94;5073278;28;19920;-73
2021/01/31 02:11:29;;;;;;;;;;;;;;;8.55;100.00;98571.81;5078209;28;20406;-73
2021/01/31 02:13:56;;;;;;;;;;;;;;;8.55;100.00;98573.78;5079109;28;19935;-73
2021/01/31 02:16:23;;;;;;;;;;;;;;;8.53;100.00;98571.38;5058792;28;19920;-73
2021/01/31 02:18:54;;;;;;;;;;;;;;;8.55;100.00;98569.06;5076951;28;19927;-73
2021/01/31 02:21:29;;;;;;;;;;;;;;;8.53;100.00;98565.03;5105142;28;19980;-73
2021/01/31 02:23:54;;;;;;;;;;;;;;;8.52;100.00;98564.19;5092395;28;20298;-73
2021/01/31 02:26:39;;;;;;;;;;;;;;;8.53;100.00;98557.53;5095681;28;19923;-73
2021/01/31 02:29:18;;;;;;;;;;;;;;;8.50;100.00;98560.97;5078236;28;20011;-73
2021/01/31 02:32:02;;;;;;;;;;;;;;;8.52;100.00;98561.41;5079137;28;19916;-73
2021/01/31 02:34:33;;;;;;;;;;;;;;;8.52;100.00;98566.94;5095403;28;19916;-73
2021/01/31 02:37:25;;;;;;;;;;;;;;;8.50;100.00;98558.19;5096739;28;20288;-73
2021/01/31 02:39:51;;;;;;;;;;;;;;;8.46;100.00;98551.66;5058402;28;19915;-73
2021/01/31 02:42:16;;;;;;;;;;;;;;;8.46;100.00;98554.44;5092707;28;19922;-73
2021/01/31 02:44:42;;;;;;;;;;;;;;;8.46;100.00;98535.06;5093638;28;19969;-73
2021/01/31 02:47:10;;;;;;;;;;;;;;;8.44;100.00;98540.13;5114594;27;20058;-73
2021/01/31 02:49:37;;;;;;;;;;;;;;;8.39;100.00;98543.06;5095429;28;19919;-73
2021/01/31 02:52:13;;;;;;;;;;;;;;;8.36;100.00;98543.66;5078155;28;20002;-73
2021/01/31 02:54:38;;;;;;;;;;;;;;;8.32;100.00;98545.47;5063790;28;19961;-73
2021/01/31 02:57:14;;;;;;;;;;;;;;;8.29;100.00;98558.81;5097048;28;20323;-73
2021/01/31 02:59:42;;;;;;;;;;;;;;;8.27;100.00;98577.72;5060003;28;19995;-73
2021/01/31 03:02:09;;;;;;;;;;;;;;;8.26;100.00;98592.66;5078781;28;19942;-74
2021/01/31 03:04:36;;;;;;;;;;;;;;;8.24;100.00;98599.66;5093629;28;19912;-73
2021/01/31 03:07:21;;;;;;;;;;;;;;;8.19;100.00;98608.94;5079892;28;19920;-73
2021/01/31 03:10:19;;;;;;;;;;;;;;;8.15;100.00;98623.72;5065497;28;19924;-73
2021/01/31 03:12:52;;;;;;;;;;;;;;;8.11;100.00;98629.09;5033891;28;19966;-73
2021/01/31 03:15:19;;;;;;;;;;;;;;;8.11;100.00;98633.78;5099856;27;19920;-73
2021/01/31 03:17:44;;;;;;;;;;;;;;;8.10;100.00;98621.91;5080290;28;20361;-73
2021/01/31 03:20:17;;;;;;;;;;;;;;;8.10;100.00;98629.41;5063436;28;19919;-73
2021/01/31 03:23:12;;;;;;;;;;;;;;;8.07;100.00;98625.34;5114649;27;19919;-73
2021/01/31 03:25:38;;;;;;;;;;;;;;;8.06;100.00;98624.53;5054120;28;19987;-73
2021/01/31 03:28:03;;;;;;;;;;;;;;;8.10;100.00;98626.66;5060409;28;20007;-73
2021/01/31 03:30:29;;;;;;;;;;;;;;;8.10;100.00;98635.75;5085973;28;20380;-73
2021/01/31 03:32:55;;;;;;;;;;;;;;;8.11;100.00;98642.91;5067025;28;19916;-73
2021/01/31 03:35:47;;;;;;;;;;;;;;;8.13;100.00;98643.38;5060511;28;19920;-73
2021/01/31 03:38:21;;;;;;;;;;;;;;;8.13;100.00;98648.91;5089491;28;19920;-73
2021/01/31 03:40:48;;;;;;;;;;;;;;;8.14;100.00;98661.63;5080272;28;19916;-73
2021/01/31 03:43:13;;;;;;;;;;;;;;;8.14;100.00;98661.63;5081744;28;19966;-73
2021/01/31 03:46:02;;;;;;;;;;;;;;;8.13;100.00;98667.47;5078931;28;19920;-73
2021/01/31 03:48:28;;;;;;;;;;;;;;;8.16;100.00;98669.59;5083623;28;20500;-73
2021/01/31 03:50:54;;;;;;;;;;;;;;;8.15;100.00;98671.53;5064468;28;20384;-73
2021/01/31 03:53:19;;;;;;;;;;;;;;;8.18;100.00;98681.94;5087957;28;19916;-73
2021/01/31 03:55:44;;;;;;;;;;;;;;;8.18;100.00;98681.94;5095921;28;19912;-73
2021/01/31 03:58:11;;;;;;;;;;;;;;;8.19;100.00;98680.00;5068168;28;20017;-73
2021/01/31 04:00:37;;;;;;;;;;;;;;;8.21;100.00;98689.59;5079662;28;19923;-73
2021/01/31 04:03:05;;;;;;;;;;;;;;;8.22;100.00;98684.91;5089702;28;20273;-73
2021/01/31 04:05:31;;;;;;;;;;;;;;;8.22;100.00;98685.72;5073371;28;19928;-74
2021/01/31 04:07:56;;;;;;;;;;;;;;;8.25;100.00;98700.84;5089284;28;19916;-73
2021/01/31 04:10:22;;;;;;;;;;;;;;;8.25;100.00;98701.66;5080631;28;19923;-73
2021/01/31 04:12:49;;;;;;;;;;;;;;;8.24;100.00;98711.06;5075530;28;19916;-73
2021/01/31 04:15:30;;;;;;;;;;;;;;;8.25;100.00;98717.44;5075278;28;19923;-73
2021/01/31 04:17:55;;;;;;;;;;;;;;;8.25;100.00;98731.28;5085264;28;19916;-73
2021/01/31 04:20:20;;;;;;;;;;;;;;;8.25;100.00;98740.38;5103106;28;20420;-73
2021/01/31 04:22:46;;;;;;;;;;;;;;;8.25;100.00;98747.88;5094277;28;20019;-73
2021/01/31 04:25:11;;;;;;;;;;;;;;;8.24;100.00;98766.38;5075720;28;19917;-73
2021/01/31 04:27:37;;;;;;;;;;;;;;;8.24;100.00;98771.09;5086487;28;19920;-73
2021/01/31 04:30:03;;;;;;;;;;;;;;;8.24;100.00;98768.34;5077801;28;19920;-73
2021/01/31 04:32:29;;;;;;;;;;;;;;;8.24;100.00;98773.88;5076535;28;20417;-73
2021/01/31 04:34:54;;;;;;;;;;;;;;;8.23;100.00;98769.50;5094363;28;19920;-73
2021/01/31 04:37:20;;;;;;;;;;;;;;;8.22;100.00;98768.69;5059342;28;19947;-73
2021/01/31 04:39:47;;;;;;;;;;;;;;;8.20;100.00;98772.91;5093880;28;19923;-73
2021/01/31 04:42:12;;;;;;;;;;;;;;;8.22;100.00;98784.47;5092644;28;19917;-73
2021/01/31 04:44:37;;;;;;;;;;;;;;;8.22;100.00;98785.28;5077720;28;20023;-73
2021/01/31 04:47:12;;;;;;;;;;;;;;;8.21;100.00;98791.91;5075707;28;21357;-73
2021/01/31 04:49:46;;;;;;;;;;;;;;;8.23;100.00;98794.38;5093441;28;19926;-73
2021/01/31 04:52:17;;;;;;;;;;;;;;;8.23;100.00;98792.41;5090755;28;20357;-73
2021/01/31 04:54:49;;;;;;;;;;;;;;;8.23;100.00;98792.41;5091749;28;20027;-73
2021/01/31 04:57:21;;;;;;;;;;;;;;;8.22;100.00;98785.28;5076626;28;19961;-73
2021/01/31 04:59:49;;;;;;;;;;;;;;;8.23;100.00;98783.31;5075645;28;19918;-73
2021/01/31 05:02:17;;;;;;;;;;;;;;;8.22;100.00;98781.69;5094982;28;19923;-73
2021/01/31 05:04:55;;;;;;;;;;;;;;;8.23;100.00;98792.41;5060870;28;19916;-73
2021/01/31 05:07:41;;;;;;;;;;;;;;;8.22;100.00;98796.34;5071706;28;20397;-73
2021/01/31 05:10:07;;;;;;;;;;;;;;;8.23;100.00;98797.94;5092391;28;20399;-73
2021/01/31 05:12:52;;;;;;;;;;;;;;;8.24;100.00;98796.00;5075338;28;19980;-73
2021/01/31 05:15:20;;;;;;;;;;;;;;;8.21;100.00;98797.44;5068743;28;20364;-73
2021/01/31 05:17:45;;;;;;;;;;;;;;;8.24;100.00;98794.03;5073314;28;19920;-73
2021/01/31 05:20:11;;;;;;;;;;;;;;;8.23;100.00;98799.91;5092255;28;20360;-73
2021/01/31 05:22:41;;;;;;;;;;;;;;;8.24;100.00;98805.09;5058167;28;19920;-73
2021/01/31 05:25:06;;;;;;;;;;;;;;;8.26;100.00;98802.03;5087575;28;19938;-73
2021/01/31 05:27:32;;;;;;;;;;;;;;;8.23;100.00;98797.94;5094409;28;20365;-73
2021/01/31 05:29:57;;;;;;;;;;;;;;;8.25;100.00;98797.66;5093192;28;19995;-73
2021/01/31 05:32:23;;;;;;;;;;;;;;;8.21;100.00;98786.38;5060023;28;19939;-73
2021/01/31 05:34:52;;;;;;;;;;;;;;;8.23;100.00;98788.84;5086693;28;19916;-73
2021/01/31 05:37:17;;;;;;;;;;;;;;;8.21;100.00;98789.16;5080745;28;19912;-73
2021/01/31 05:39:44;;;;;;;;;;;;;;;8.21;100.00;98802.19;5099787;28;19923;-73
2021/01/31 05:42:10;;;;;;;;;;;;;;;8.22;100.00;98824.00;5100770;28;19916;-74
2021/01/31 05:44:35;;;;;;;;;;;;;;;8.22;100.00;98821.22;5089656;28;19923;-73
2021/01/31 05:47:01;;;;;;;;;;;;;;;8.21;100.00;98827.88;5077371;28;19920;-73
2021/01/31 05:49:34;;;;;;;;;;;;;;;8.19;100.00;98835.69;5073739;28;19974;-73
2021/01/31 05:51:59;;;;;;;;;;;;;;;8.19;100.00;98840.38;5090917;28;19920;-73
2021/01/31 05:54:35;;;;;;;;;;;;;;;8.18;100.00;98838.75;5065002;28;19918;-73
2021/01/31 05:57:00;;;;;;;;;;;;;;;8.19;100.00;98832.94;5080068;28;19923;-73
2021/01/31 05:59:36;;;;;;;;;;;;;;;8.19;100.00;98834.84;5099392;28;19916;-73
2021/01/31 06:02:02;;;;;;;;;;;;;;;8.20;100.00;98840.09;5102014;28;19958;-73
2021/01/31 06:04:27;;;;;;;;;;;;;;;8.17;100.00;98840.72;5079615;28;19913;-73
2021/01/31 06:07:13;;;;;;;;;;;;;;;8.19;100.00;98835.69;5097956;28;19916;-73
2021/01/31 06:09:41;;;;;;;;;;;;;;;8.19;100.00;98829.31;5086550;28;19928;-73
2021/01/31 06:12:14;;;;;;;;;;;;;;;8.16;100.00;98827.19;5109656;27;19920;-72
2021/01/31 06:14:43;;;;;;;;;;;;;;;8.18;100.00;98816.66;5079735;28;19920;-73
2021/01/31 06:17:34;;;;;;;;;;;;;;;8.19;100.00;98810.81;5109562;28;20374;-73
2021/01/31 06:20:03;;;;;;;;;;;;;;;8.17;100.00;98801.19;5058254;28;19920;-73
2021/01/31 06:22:38;;;;;;;;;;;;;;;8.14;100.00;98807.38;5093265;28;20019;-73
2021/01/31 06:25:04;;;;;;;;;;;;;;;8.16;100.00;98819.75;5097633;28;19955;-73
2021/01/31 06:27:33;;;;;;;;;;;;;;;8.15;100.00;98831.91;5078075;28;20442;-73
2021/01/31 06:30:01;;;;;;;;;;;;;;;8.16;100.00;98825.28;5094533;28;20373;-73
2021/01/31 06:32:28;;;;;;;;;;;;;;;8.15;100.00;98831.09;5109528;28;19916;-73
2021/01/31 06:34:54;;;;;;;;;;;;;;;8.15;100.00;98834.69;5080737;28;19995;-73
2021/01/31 06:37:25;;;;;;;;;;;;;;;8.16;100.00;98843.78;5060757;28;20444;-73
2021/01/31 06:40:03;;;;;;;;;;;;;;;8.13;100.00;98836.94;5050865;28;19976;-73
2021/01/31 06:42:33;;;;;;;;;;;;;;;8.15;100.00;98842.16;5082535;28;20320;-73
2021/01/31 06:45:04;;;;;;;;;;;;;;;8.13;100.00;98838.91;5071781;28;19923;-73
2021/01/31 06:47:29;;;;;;;;;;;;;;;8.13;100.00;98842.47;5096036;28;20052;-73
2021/01/31 06:49:58;;;;;;;;;;;;;;;8.12;100.00;98840.03;5080182;28;19954;-73
2021/01/31 06:52:29;;;;;;;;;;;;;;;8.12;100.00;98840.84;5093309;28;19916;-73
2021/01/31 06:54:57;;;;;;;;;;;;;;;8.12;100.00;98846.38;5058368;28;20392;-73
2021/01/31 06:57:38;;;;;;;;;;;;;;;8.13;100.00;98852.72;5074761;28;19927;-73
2021/01/31 07:00:20;;;;;;;;;;;;;;;8.13;100.00;98853.53;5091269;28;19916;-73
2021/01/31 07:02:52;;;;;;;;;;;;;;;8.11;100.00;98847.53;5076965;28;19923;-73
2021/01/31 07:05:36;;;;;;;;;;;;;;;8.10;100.00;98854.19;5085051;28;19923;-73
2021/01/31 07:08:20;;;;;;;;;;;;;;;8.13;100.00;98848.00;5100230;28;19923;-73
2021/01/31 07:10:48;;;;;;;;;;;;;;;8.09;100.00;98852.56;5102649;28;19920;-73
2021/01/31 07:13:43;;;;;;;;;;;;;;;8.09;100.00;98826.84;5083537;28;19916;-73
2021/01/31 07:16:15;;;;;;;;;;;;;;;8.06;100.00;98818.06;5055463;28;20016;-73
2021/01/31 07:18:43;;;;;;;;;;;;;;;8.08;100.00;98826.06;5080961;28;19981;-73
2021/01/31 07:21:15;;;;;;;;;;;;;;;8.06;100.00;98842.13;5074217;28;19967;-73
2021/01/31 07:23:40;;;;;;;;;;;;;;;8.07;100.00;98863.09;5072683;28;19920;-73
2021/01/31 07:26:09;;;;;;;;;;;;;;;8.05;100.00;98865.38;5025795;28;19924;-73
2021/01/31 07:28:35;;;;;;;;;;;;;;;8.07;100.00;98860.34;5075328;28;19927;-73
2021/01/31 07:31:17;;;;;;;;;;;;;;;8.03;100.00;98862.13;5057382;28;19955;-73
2021/01/31 07:33:48;;;;;;;;;;;;;;;8.03;100.00;98870.41;5066150;28;20406;-73
2021/01/31 07:36:25;;;;;;;;;;;;;;;8.03;100.00;98868.47;5074491;28;19923;-73
2021/01/31 07:38:50;;;;;;;;;;;;;;;8.05;100.00;98866.22;5058350;28;19921;-73
2021/01/31 07:41:16;;;;;;;;;;;;;;;8.04;100.00;98867.31;5087215;28;19940;-72
2021/01/31 07:43:41;;;;;;;;;;;;;;;8.02;100.00;98857.72;5060686;28;20569;-73
2021/01/31 07:46:08;;;;;;;;;;;;;;;8.02;100.00;98852.19;5057339;28;19921;-73
2021/01/31 07:48:50;;;;;;;;;;;;;;;8.00;100.00;98855.28;5030553;28;19924;-73
2021/01/31 07:51:25;;;;;;;;;;;;;;;7.96;100.00;98868.09;5079255;28;19999;-71
2021/01/31 07:53:50;;;;;;;;;;;;;;;7.97;100.00;98868.94;5075414;28;19924;-74
2021/01/31 07:56:31;;;;;;;;;;;;;;;7.98;100.00;98874.13;5066663;28;19924;-73
2021/01/31 07:58:56;;;;;;;;;;;;;;;8.00;100.00;98871.06;5059595;28;19923;-73
2021/01/31 08:01:40;;;;;;;;;;;;;;;8.00;100.00;98865.53;5072678;28;19917;-73
2021/01/31 08:04:17;;;;;;;;;;;;;;;7.98;100.00;98859.50;5057857;28;19917;-73
2021/01/31 08:06:46;;;;;;;;;;;;;;;7.98;100.00;98873.31;5051523;28;19912;-73
2021/01/31 08:09:27;;;;;;;;;;;;;;;7.97;100.00;98874.47;5068803;28;19977;-73
2021/01/31 08:12:01;;;;;;;;;;;;;;;8.00;100.00;98880.16;5066344;28;20600;-73
2021/01/31 08:14:46;;;;;;;;;;;;;;;7.99;100.00;98877.69;5064578;28;19928;-73
2021/01/31 08:17:14;;;;;;;;;;;;;;;7.98;100.00;98890.72;5070726;28;20254;-73
2021/01/31 08:19:40;;;;;;;;;;;;;;;8.01;100.00;98889.25;5065443;28;19920;-73
2021/01/31 08:22:10;;;;;;;;;;;;;;;7.97;100.00;98899.34;5061529;28;19922;-73
2021/01/31 08:24:54;;;;;;;;;;;;;;;8.00;100.00;98893.19;5106185;28;19912;-73
2021/01/31 08:27:42;;;;;;;;;;;;;;;8.01;100.00;98875.44;5077709;28;19916;-74
2021/01/31 08:30:14;;;;;;;;;;;;;;;8.02;100.00;98874.31;5074486;28;19963;-73
2021/01/31 08:32:58;;;;;;;;;;;;;;;7.98;100.00;98874.13;5094463;28;20013;-73
2021/01/31 08:35:24;;;;;;;;;;;;;;;8.00;100.00;98860.00;5085536;28;19999;-73
2021/01/31 08:37:52;;;;;;;;;;;;;;;8.02;100.00;98858.56;5076258;28;19917;-73
2021/01/31 08:40:18;;;;;;;;;;;;;;;8.01;100.00;98861.63;5073086;28;20303;-73
2021/01/31 08:42:48;;;;;;;;;;;;;;;8.00;100.00;98869.09;5075804;28;19948;-73
2021/01/31 08:45:13;;;;;;;;;;;;;;;8.02;100.00;98886.19;5055663;28;19923;-73
2021/01/31 08:47:39;;;;;;;;;;;;;;;8.03;100.00;98884.25;5058257;28;19916;-73
2021/01/31 08:50:04;;;;;;;;;;;;;;;8.04;100.00;98872.84;5077233;28;19931;-73
2021/01/31 08:52:30;;;;;;;;;;;;;;;8.03;100.00;98873.19;5072834;28;19920;-73
2021/01/31 08:55:02;;;;;;;;;;;;;;;8.04;100.00;98878.38;5069355;28;19916;-74
2021/01/31 08:57:28;;;;;;;;;;;;;;;8.04;100.00;98877.56;5094079;28;19945;-73
2021/01/31 08:59:53;;;;;;;;;;;;;;;8.06;100.00;98878.88;5088544;28;19924;-73
2021/01/31 09:02:20;;;;;;;;;;;;;;;8.08;100.00;98878.59;5077046;28;20360;-74
2021/01/31 09:04:53;;;;;;;;;;;;;;;8.09;100.00;98880.22;5061829;28;20010;-73
2021/01/31 09:07:19;;;;;;;;;;;;;;;8.09;100.00;98880.22;5079572;28;20038;-73
2021/01/31 09:10:08;;;;;;;;;;;;;;;8.12;100.00;98893.41;5064775;28;20380;-73
2021/01/31 09:12:34;;;;;;;;;;;;;;;8.14;100.00;98895.84;5061211;28;20238;-74
2021/01/31 09:15:12;;;;;;;;;;;;;;;8.15;100.00;98903.00;5064916;28;19975;-74
2021/01/31 09:17:37;;;;;;;;;;;;;;;8.17;100.00;98912.63;5070141;28;20011;-74
2021/01/31 09:20:06;;;;;;;;;;;;;;;8.19;100.00;98913.13;5045670;28;19959;-74
2021/01/31 09:22:31;;;;;;;;;;;;;;;8.21;100.00;98910.03;5055715;28;19917;-74
2021/01/31 09:24:58;;;;;;;;;;;;;;;8.23;100.00;98896.72;5063992;28;20016;-74
2021/01/31 09:27:23;;;;;;;;;;;;;;;8.24;100.00;98901.91;5068086;28;19981;-74
2021/01/31 09:29:49;;;;;;;;;;;;;;;8.26;100.00;98896.06;5077762;28;20292;-73
2021/01/31 09:32:19;;;;;;;;;;;;;;;8.26;100.00;98891.34;5064108;28;19974;-74
2021/01/31 09:34:44;;;;;;;;;;;;;;;8.27;100.00;98884.69;5082224;28;20324;-73
2021/01/31 09:37:10;;;;;;;;;;;;;;;8.28;100.00;98878.03;5059754;28;19913;-74
2021/01/31 09:39:37;;;;;;;;;;;;;;;8.31;100.00;98870.22;5052713;28;20364;-74
2021/01/31 09:42:02;;;;;;;;;;;;;;;8.31;100.00;98867.47;5071010;28;19923;-74
2021/01/31 09:44:28;;;;;;;;;;;;;;;8.31;100.00;98861.94;5049095;28;20263;-74
2021/01/31 09:46:53;;;;;;;;;;;;;;;8.34;100.00;98847.47;5062149;28;19916;-74
2021/01/31 09:49:19;;;;;;;;;;;;;;;8.36;100.00;98840.47;5078528;28;20011;-74
2021/01/31 09:51:45;;;;;;;;;;;;;;;8.38;100.00;98832.66;5049372;28;19913;-74
2021/01/31 09:54:43;;;;;;;;;;;;;;;8.41;100.00;98828.47;5054735;28;19928;-74
2021/01/31 09:57:26;;;;;;;;;;;;;;;8.43;100.00;98818.72;5020482;28;19917;-74
2021/01/31 10:00:04;;;;;;;;;;;;;;;8.45;100.00;98799.03;5086853;28;19955;-74
2021/01/31 10:02:29;;;;;;;;;;;;;;;8.46;100.00;98778.53;5058787;28;19924;-74
2021/01/31 10:04:56;;;;;;;;;;;;;;;8.48;100.00;98777.06;5059924;28;19916;-74
2021/01/31 10:07:31;;;;;;;;;;;;;;;8.49;100.00;98772.34;5040926;28;20023;-74
2021/01/31 10:09:57;;;;;;;;;;;;;;;8.52;100.00;98774.47;5061240;28;19943;-74
2021/01/31 10:12:25;;;;;;;;;;;;;;;8.54;100.00;98780.50;5060065;28;20003;-74
2021/01/31 10:14:51;;;;;;;;;;;;;;;8.57;100.00;98782.59;5067539;28;20296;-74
2021/01/31 10:17:17;;;;;;;;;;;;;;;8.60;100.00;98784.72;5074297;28;19999;-74
2021/01/31 10:19:44;;;;;;;;;;;;;;;8.62;100.00;98782.47;5056000;28;19928;-74
2021/01/31 10:22:14;;;;;;;;;;;;;;;8.67;100.00;98787.84;5074699;28;20020;-74
2021/01/31 10:24:44;;;;;;;;;;;;;;;8.70;100.00;98784.44;5053892;28;19916;-74
2021/01/31 10:27:09;;;;;;;;;;;;;;;8.75;100.00;98786.25;5035830;28;19916;-74
2021/01/31 10:29:35;;;;;;;;;;;;;;;8.79;100.00;98786.41;5077270;28;19950;-74
2021/01/31 10:32:19;;;;;;;;;;;;;;;8.85;100.00;98790.63;5076384;28;19969;-74
2021/01/31 10:34:44;;;;;;;;;;;;;;;8.88;100.00;98789.97;5071582;28;20266;-74
2021/01/31 10:37:13;;;;;;;;;;;;;;;8.93;100.00;98792.59;5044726;28;19927;-75
2021/01/31 10:39:38;;;;;;;;;;;;;;;8.98;100.00;98794.41;5070822;28;19913;-75
2021/01/31 10:42:18;;;;;;;;;;;;;;;9.03;100.00;98797.00;5047434;28;19916;-75
2021/01/31 10:45:05;;;;;;;;;;;;;;;9.07;100.00;98801.53;5027941;28;20388;-74
2021/01/31 10:47:46;;;;;;;;;;;;;;;9.13;100.00;98797.47;5073686;28;19916;-75
2021/01/31 10:50:18;;;;;;;;;;;;;;;9.18;100.00;98794.53;5046591;28;19920;-75
2021/01/31 10:53:12;;;;;;;;;;;;;;;9.23;100.00;98801.88;5052579;28;19927;-75
2021/01/31 10:56:07;;;;;;;;;;;;;;;;;;;;;
2021/01/31 11:02:30;;;;;;;;;;;;;;;9.36;100.00;98798.13;5044921;28;19917;-75
2021/01/31 11:09:14;;;;;;;;;;;;;;;9.44;100.00;98779.84;4981156;28;19929;-75
2021/01/31 11:12:10;;;;;;;;;;;;;;;9.46;100.00;98777.56;4996871;28;19940;-76
2021/01/31 11:15:14;;;;;;;;;;;;;;;9.49;100.00;98765.81;4968552;28;19926;-75
2021/01/31 11:18:55;;;;;;;;;;;;;;;9.52;100.00;98756.03;4907987;28;20507;-75
2021/01/31 11:25:41;;;;;;;;;;;;;;;;;;;;;
2021/01/31 11:35:07;;;;;;;;;;;;;;;9.66;99.66;98714.25;4972773;28;20390;-75
2021/01/31 11:41:03;;;;;;;;;;;;;;;9.67;99.61;98671.53;4959465;28;19950;-75
2021/01/31 11:44:14;;;;;;;;;;;;;;;9.68;99.67;98662.88;4974697;28;19965;-75
2021/01/31 11:46:39;;;;;;;;;;;;;;;9.70;99.63;98657.84;5037636;28;19998;-77
2021/01/31 11:49:13;;;;;;;;;;;;;;;9.70;99.76;98648.72;5034683;28;19921;-75
2021/01/31 11:51:51;;;;;;;;;;;;;;;9.72;99.67;98640.84;5035206;28;20032;-75
2021/01/31 11:54:43;;;;;;;;;;;;;;;;;;;;;
2021/01/31 11:58:29;;;;;;;;;;;;;;;;;;;;;
2021/01/31 12:09:17;;;;;;;;;;;;;;;9.92;99.80;98623.47;4906619;29;19927;-75
2021/01/31 12:12:26;;;;;;;;;;;;;;;;;;;;;
2021/01/31 12:15:42;;;;;;;;;;;;;;;10.05;99.80;98602.16;5015686;28;19917;-75
2021/01/31 12:27:32;;;;;;;;;;;;;;;10.17;98.86;98580.06;5087691;28;19916;-75
2021/01/31 12:30:39;;;;;;;;;;;;;;;;;;;;;
2021/01/31 12:33:30;;;;;;;;;;;;;;;10.12;98.80;98571.94;5092241;28;19956;-75
2021/01/31 12:36:29;;;;;;;;;;;;;;;10.08;98.60;98565.44;5044739;28;19936;-75
2021/01/31 12:39:42;;;;;;;;;;;;;;;10.04;98.67;98553.41;5059395;28;19923;-76
2021/01/31 12:42:39;;;;;;;;;;;;;;;9.99;98.70;98546.09;5110128;28;19935;-75
2021/01/31 12:52:40;;;;;;;;;;;;;;;9.84;98.79;98505.91;4974555;28;19953;-76
2021/01/31 13:03:38;;;;;;;;;;;;;;;9.75;99.94;98490.50;4919640;29;19982;-75
2021/01/31 13:33:00;;;;;;;;;;;;;;;;;;;;;
2021/01/31 13:35:55;;;;;;;;;;;;;;;9.93;100.00;98385.81;5045615;28;19920;-75
2021/01/31 13:42:04;;;;;;;;;;;;;;;10.05;100.00;98347.81;5037212;28;20387;-75
2021/01/31 13:44:47;;;;;;;;;;;;;;;10.09;100.00;98345.19;5002279;28;19916;-75
2021/01/31 13:54:53;;;;;;;;;;;;;;;;;;;;;
2021/01/31 13:57:31;;;;;;;;;;;;;;;10.21;99.79;98322.22;5037649;28;19913;-75
2021/01/31 14:00:35;;;;;;;;;;;;;;;10.23;99.66;98317.94;5022221;28;19921;-75
2021/01/31 14:03:53;;;;;;;;;;;;;;;10.25;99.63;98323.13;4981062;28;20290;-75
2021/01/31 14:06:29;;;;;;;;;;;;;;;;;;;;;
2021/01/31 14:09:13;;;;;;;;;;;;;;;10.25;99.57;98314.81;5009127;28;19955;-75
2021/01/31 14:12:14;;;;;;;;;;;;;;;;;;;;;
2021/01/31 14:15:05;;;;;;;;;;;;;;;10.24;99.18;98291.00;5030761;28;19988;-75
2021/01/31 14:18:15;;;;;;;;;;;;;;;10.22;99.49;98288.59;5016452;28;19960;-75
2021/01/31 14:21:21;;;;;;;;;;;;;;;10.20;99.55;98282.56;4943935;28;19919;-75
2021/01/31 14:24:35;;;;;;;;;;;;;;;10.17;99.68;98269.41;4905729;29;19922;-75
2021/01/31 14:27:08;;;;;;;;;;;;;;;10.15;99.70;98257.81;4892498;29;19918;-75
2021/01/31 14:29:58;;;;;;;;;;;;;;;10.14;99.81;98250.66;4944525;28;19929;-75
2021/01/31 14:36:43;;;;;;;;;;;;;;;10.10;99.70;98240.59;4998415;28;19925;-75
2021/01/31 14:39:26;;;;;;;;;;;;;;;10.09;99.68;98239.00;4986194;28;19929;-75
2021/01/31 14:41:57;;;;;;;;;;;;;;;10.06;99.77;98230.22;4997668;28;19914;-75
2021/01/31 14:44:59;;;;;;;;;;;;;;;10.05;99.90;98225.00;4981061;28;19917;-78
2021/01/31 14:48:01;;;;;;;;;;;;;;;10.04;99.79;98213.09;4920589;29;19931;-76
2021/01/31 14:50:42;;;;;;;;;;;;;;;10.03;99.93;98202.38;4886458;29;20324;-76
2021/01/31 14:53:31;;;;;;;;;;;;;;;10.02;99.91;98193.22;4902331;29;20009;-76
2021/01/31 14:56:46;;;;;;;;;;;;;;;10.00;99.99;98184.47;4923848;28;19918;-76
2021/01/31 14:59:22;;;;;;;;;;;;;;;9.97;100.00;98182.38;4999191;28;19921;-76
2021/01/31 15:02:21;;;;;;;;;;;;;;;9.97;100.00;98165.75;5003054;28;19921;-76
2021/01/31 15:12:19;;;;;;;;;;;;;;;9.82;100.00;98135.94;4890474;29;19936;-76
2021/01/31 15:14:53;;;;;;;;;;;;;;;9.80;100.00;98127.16;4906628;28;19917;-76